Terminal Aerodrome Forecast
Issued by NWS

Home | Current Version | Previous Version | Text Only | Print | Product List | Glossary On
Versions: 1 2 3 4 5 6 7 8 9 10 11 12
000
FTUS42 TJSJ 301731
TAFJBQ
TAF
TJBQ 301731Z 3018/3118 01009KT P6SM VCSH SCT070
      TEMPO 3019/3022 VRB10G20KT 3SM TSRA BKN020CB OVC040
     FM302300 VRB05KT P6SM SCT025 BKN070
     FM311500 06008G15KT P6SM VCSH SCT025 BKN040 BKN090=

USA.gov is the U.S. government's official web portal to all federal, state and local government web resources and services.